sensor_id;sensor_type;location;lat;lon;timestamp;pressure;altitude;pressure_sealevel;temperature;humidity
44198;BME280;30157;55.512;37.764;2023-04-01T00:00:52;98591.56;;;0.09;97.87
44198;BME280;30157;55.512;37.764;2023-04-01T00:03:20;98480.78;;;-0.54;97.96
44198;BME280;30157;55.512;37.764;2023-04-01T00:05:46;98597.59;;;0.14;97.88
44198;BME280;30157;55.512;37.764;2023-04-01T00:08:13;98553.84;;;-0.09;98.05
44198;BME280;30157;55.512;37.764;2023-04-01T00:10:38;98596.94;;;0.23;98.12
44198;BME280;30157;55.512;37.764;2023-04-01T00:13:04;98596.03;;;0.21;98.20
44198;BME280;30157;55.512;37.764;2023-04-01T00:15:31;98592.66;;;0.24;98.28
44198;BME280;30157;55.512;37.764;2023-04-01T00:17:56;98562.59;;;0.06;97.82
44198;BME280;30157;55.512;37.764;2023-04-01T00:20:22;98559.19;;;0.05;97.80
44198;BME280;30157;55.512;37.764;2023-04-01T00:22:48;98593.59;;;0.27;97.69
44198;BME280;30157;55.512;37.764;2023-04-01T00:25:14;98562.69;;;0.12;97.90
44198;BME280;30157;55.512;37.764;2023-04-01T00:27:40;98580.72;;;0.21;97.76
44198;BME280;30157;55.512;37.764;2023-04-01T00:30:09;98518.09;;;-0.10;97.63
44198;BME280;30157;55.512;37.764;2023-04-01T00:32:34;98562.81;;;0.18;97.47
44198;BME280;30157;55.512;37.764;2023-04-01T00:35:04;98572.22;;;0.22;97.46
44198;BME280;30157;55.512;37.764;2023-04-01T00:37:35;98494.97;;;-0.21;97.33
44198;BME280;30157;55.512;37.764;2023-04-01T00:40:04;98588.53;;;0.32;97.18
44198;BME280;30157;55.512;37.764;2023-04-01T00:42:38;98587.75;;;0.35;97.02
44198;BME280;30157;55.512;37.764;2023-04-01T00:47:52;98583.47;;;0.33;97.27
44198;BME280;30157;55.512;37.764;2023-04-01T00:50:19;98588.56;;;0.33;96.94
44198;BME280;30157;55.512;37.764;2023-04-01T00:52:47;98583.47;;;0.33;96.79
44198;BME280;30157;55.512;37.764;2023-04-01T00:55:16;98555.97;;;0.17;96.90
44198;BME280;30157;55.512;37.764;2023-04-01T00:57:44;98514.69;;;-0.11;97.00
44198;BME280;30157;55.512;37.764;2023-04-01T01:00:12;98582.56;;;0.28;97.01
44198;BME280;30157;55.512;37.764;2023-04-01T01:02:45;98590.22;;;0.28;97.05
44198;BME280;30157;55.512;37.764;2023-04-01T01:05:14;98560.13;;;0.10;97.47
44198;BME280;30157;55.512;37.764;2023-04-01T01:08:52;98594.53;;;0.32;97.36
44198;BME280;30157;55.512;37.764;2023-04-01T01:10:55;98575.59;;;0.20;97.24
44198;BME280;30157;55.512;37.764;2023-04-01T01:13:49;98592.66;;;0.24;97.46
44198;BME280;30157;55.512;37.764;2023-04-01T01:16:29;98542.78;;;-0.09;97.71
44198;BME280;30157;55.512;37.764;2023-04-01T01:22:06;98589.88;;;0.10;97.65
44198;BME280;30157;55.512;37.764;2023-04-01T01:27:16;98490.97;;;-0.54;97.58
44198;BME280;30157;55.512;37.764;2023-04-01T01:35:38;98591.50;;;0.05;97.71
44198;BME280;30157;55.512;37.764;2023-04-01T01:38:16;98554.22;;;-0.35;98.22
44198;BME280;30157;55.512;37.764;2023-04-01T01:40:50;98588.53;;;-0.19;98.51
44198;BME280;30157;55.512;37.764;2023-04-01T01:43:30;98588.72;;;-0.09;98.34
44198;BME280;30157;55.512;37.764;2023-04-01T01:46:01;98547.44;;;-0.32;98.83
44198;BME280;30157;55.512;37.764;2023-04-01T01:48:29;98596.34;;;-0.09;98.70
44198;BME280;30157;55.512;37.764;2023-04-01T01:50:56;98553.47;;;-0.30;98.96
44198;BME280;30157;55.512;37.764;2023-04-01T01:53:22;98597.38;;;0.01;98.87
44198;BME280;30157;55.512;37.764;2023-04-01T01:55:47;98600.00;;;0.05;98.94
44198;BME280;30157;55.512;37.764;2023-04-01T01:58:19;98511.66;;;-0.39;98.62
44198;BME280;30157;55.512;37.764;2023-04-01T02:00:59;98539.03;;;-0.28;98.32
44198;BME280;30157;55.512;37.764;2023-04-01T02:03:29;98503.75;;;-0.53;98.36
44198;BME280;30157;55.512;37.764;2023-04-01T02:05:59;98580.94;;;-0.15;98.32
44198;BME280;30157;55.512;37.764;2023-04-01T02:08:38;98498.44;;;-0.65;98.24
44198;BME280;30157;55.512;37.764;2023-04-01T02:11:08;98581.72;;;-0.18;98.44
44198;BME280;30157;55.512;37.764;2023-04-01T02:14:02;98614.38;;;0.00;98.64
44198;BME280;30157;55.512;37.764;2023-04-01T02:17:13;98522.28;;;-0.61;98.40
44198;BME280;30157;55.512;37.764;2023-04-01T02:19:47;98587.47;;;-0.28;98.80
44198;BME280;30157;55.512;37.764;2023-04-01T02:22:17;98616.72;;;-0.11;98.84
44198;BME280;30157;55.512;37.764;2023-04-01T02:24:45;98580.69;;;-0.29;98.93
44198;BME280;30157;55.512;37.764;2023-04-01T02:27:12;98515.38;;;-0.67;98.66
44198;BME280;30157;55.512;37.764;2023-04-01T02:29:38;98627.88;;;-0.04;98.67
44198;BME280;30157;55.512;37.764;2023-04-01T02:32:07;98620.16;;;-0.09;98.93
44198;BME280;30157;55.512;37.764;2023-04-01T02:34:34;98613.25;;;-0.14;99.04
44198;BME280;30157;55.512;37.764;2023-04-01T02:37:00;98620.22;;;-0.04;99.04
44198;BME280;30157;55.512;37.764;2023-04-01T02:39:26;98616.00;;;-0.05;98.95
44198;BME280;30157;55.512;37.764;2023-04-01T02:41:53;98519.91;;;-0.54;98.45
44198;BME280;30157;55.512;37.764;2023-04-01T02:44:18;98581.72;;;-0.20;98.74
44198;BME280;30157;55.512;37.764;2023-04-01T02:46:44;98608.34;;;-0.05;98.64
44198;BME280;30157;55.512;37.764;2023-04-01T02:49:10;98585.88;;;-0.23;98.82
44198;BME280;30157;55.512;37.764;2023-04-01T02:51:36;98490.41;;;-0.85;98.71
44198;BME280;30157;55.512;37.764;2023-04-01T02:54:04;98607.41;;;-0.09;98.98
44198;BME280;30157;55.512;37.764;2023-04-01T02:56:29;98616.00;;;-0.04;98.83
44198;BME280;30157;55.512;37.764;2023-04-01T02:58:55;98577.41;;;-0.22;98.77
44198;BME280;30157;55.512;37.764;2023-04-01T03:01:22;98529.44;;;-0.42;98.69
44198;BME280;30157;55.512;37.764;2023-04-01T03:03:47;98612.03;;;0.11;98.84
44198;BME280;30157;55.512;37.764;2023-04-01T03:06:14;98616.28;;;0.12;98.51
44198;BME280;30157;55.512;37.764;2023-04-01T03:08:41;98624.00;;;0.15;98.00
44198;BME280;30157;55.512;37.764;2023-04-01T03:11:08;98613.69;;;0.09;98.04
44198;BME280;30157;55.512;37.764;2023-04-01T03:13:35;98379.88;;;-1.38;98.02
44198;BME280;30157;55.512;37.764;2023-04-01T03:16:01;98630.75;;;0.13;98.14
44198;BME280;30157;55.512;37.764;2023-04-01T03:18:27;98641.09;;;0.19;98.45
44198;BME280;30157;55.512;37.764;2023-04-01T03:20:53;98636.00;;;0.21;98.04
44198;BME280;30157;55.512;37.764;2023-04-01T03:23:19;98636.88;;;0.23;98.18
44198;BME280;30157;55.512;37.764;2023-04-01T03:25:47;98614.59;;;0.11;97.98
44198;BME280;30157;55.512;37.764;2023-04-01T03:28:14;98533.00;;;-0.33;97.72
44198;BME280;30157;55.512;37.764;2023-04-01T03:30:39;98558.72;;;-0.21;97.77
44198;BME280;30157;55.512;37.764;2023-04-01T03:33:05;98629.22;;;0.23;98.11
44198;BME280;30157;55.512;37.764;2023-04-01T03:35:31;98628.38;;;0.22;97.99
44198;BME280;30157;55.512;37.764;2023-04-01T03:37:57;98643.91;;;0.35;97.90
44198;BME280;30157;55.512;37.764;2023-04-01T03:40:23;98547.66;;;-0.22;97.77
44198;BME280;30157;55.512;37.764;2023-04-01T03:42:52;98557.19;;;-0.11;97.55
44198;BME280;30157;55.512;37.764;2023-04-01T03:45:18;98550.97;;;-0.26;97.39
44198;BME280;30157;55.512;37.764;2023-04-01T03:47:44;98658.53;;;0.43;97.40
44198;BME280;30157;55.512;37.764;2023-04-01T03:50:10;98575.66;;;-0.25;97.75
44198;BME280;30157;55.512;37.764;2023-04-01T03:52:36;98658.09;;;0.20;98.05
44198;BME280;30157;55.512;37.764;2023-04-01T03:55:02;98675.19;;;0.24;97.99
44198;BME280;30157;55.512;37.764;2023-04-01T03:57:31;98661.50;;;0.19;98.29
44198;BME280;30157;55.512;37.764;2023-04-01T04:00:01;98639.06;;;0.03;98.24
44198;BME280;30157;55.512;37.764;2023-04-01T04:02:29;98664.06;;;0.19;98.46
44198;BME280;30157;55.512;37.764;2023-04-01T04:04:55;98675.31;;;0.30;98.36
44198;BME280;30157;55.512;37.764;2023-04-01T04:07:21;98659.00;;;0.22;98.19
44198;BME280;30157;55.512;37.764;2023-04-01T04:10:00;98682.31;;;0.41;98.17
44198;BME280;30157;55.512;37.764;2023-04-01T04:12:26;98684.09;;;0.45;97.92
44198;BME280;30157;55.512;37.764;2023-04-01T04:14:53;98685.03;;;0.50;97.77
44198;BME280;30157;55.512;37.764;2023-04-01T04:17:18;98586.22;;;-0.05;97.76
44198;BME280;30157;55.512;37.764;2023-04-01T04:19:44;98691.75;;;0.45;97.44
44198;BME280;30157;55.512;37.764;2023-04-01T04:22:10;98680.47;;;0.33;97.25
44198;BME280;30157;55.512;37.764;2023-04-01T04:24:36;98688.25;;;0.41;97.18
44198;BME280;30157;55.512;37.764;2023-04-01T04:27:08;98690.75;;;0.37;97.69
44198;BME280;30157;55.512;37.764;2023-04-01T04:29:41;98664.16;;;0.27;97.74
44198;BME280;30157;55.512;37.764;2023-04-01T04:32:07;98701.94;;;0.43;97.63
44198;BME280;30157;55.512;37.764;2023-04-01T04:34:32;98694.16;;;0.39;97.79
44198;BME280;30157;55.512;37.764;2023-04-01T04:36:58;98664.06;;;0.19;97.78
44198;BME280;30157;55.512;37.764;2023-04-01T04:39:29;98704.47;;;0.42;97.96
44198;BME280;30157;55.512;37.764;2023-04-01T04:41:55;98698.22;;;0.27;98.03
44198;BME280;30157;55.512;37.764;2023-04-01T04:44:20;98603.66;;;-0.28;98.01
44198;BME280;30157;55.512;37.764;2023-04-01T04:46:46;98706.97;;;0.40;98.15
44198;BME280;30157;55.512;37.764;2023-04-01T04:49:14;98684.69;;;0.31;98.17
44198;BME280;30157;55.512;37.764;2023-04-01T04:51:40;98716.56;;;0.54;98.58
44198;BME280;30157;55.512;37.764;2023-04-01T04:54:06;98729.13;;;0.43;98.12
44198;BME280;30157;55.512;37.764;2023-04-01T04:56:51;98580.56;;;-0.36;98.09
44198;BME280;30157;55.512;37.764;2023-04-01T04:59:18;98666.69;;;0.25;97.89
44198;BME280;30157;55.512;37.764;2023-04-01T05:01:55;98735.69;;;0.76;98.05
44198;BME280;30157;55.512;37.764;2023-04-01T05:04:21;98526.84;;;-0.45;97.24
44198;BME280;30157;55.512;37.764;2023-04-01T05:06:47;98558.59;;;-0.27;96.71
44198;BME280;30157;55.512;37.764;2023-04-01T05:09:13;98580.94;;;-0.15;97.14
44198;BME280;30157;55.512;37.764;2023-04-01T05:11:40;98718.44;;;0.62;97.13
44198;BME280;30157;55.512;37.764;2023-04-01T05:14:14;98734.09;;;0.81;96.85
44198;BME280;30157;55.512;37.764;2023-04-01T05:16:43;98633.44;;;0.19;96.94
44198;BME280;30157;55.512;37.764;2023-04-01T05:19:09;98739.22;;;0.82;96.72
44198;BME280;30157;55.512;37.764;2023-04-01T05:21:35;98711.00;;;0.78;96.72
44198;BME280;30157;55.512;37.764;2023-04-01T05:24:01;98734.31;;;0.95;96.66
44198;BME280;30157;55.512;37.764;2023-04-01T05:26:29;98702.69;;;0.88;96.38
44198;BME280;30157;55.512;37.764;2023-04-01T05:28:56;98633.72;;;0.38;96.14
44198;BME280;30157;55.512;37.764;2023-04-01T05:31:21;98731.00;;;1.02;96.27
44198;BME280;30157;55.512;37.764;2023-04-01T05:33:50;98714.72;;;0.97;96.54
44198;BME280;30157;55.512;37.764;2023-04-01T05:36:16;98715.69;;;1.04;96.55
44198;BME280;30157;55.512;37.764;2023-04-01T05:38:44;98741.41;;;1.14;96.39
44198;BME280;30157;55.512;37.764;2023-04-01T05:41:13;98724.28;;;1.07;96.19
44198;BME280;30157;55.512;37.764;2023-04-01T05:43:45;98724.28;;;1.09;95.85
44198;BME280;30157;55.512;37.764;2023-04-01T05:46:30;98656.53;;;0.79;95.80
44198;BME280;30157;55.512;37.764;2023-04-01T05:49:13;98740.59;;;1.17;95.87
44198;BME280;30157;55.512;37.764;2023-04-01T05:51:39;98730.19;;;1.05;95.75
44198;BME280;30157;55.512;37.764;2023-04-01T05:54:06;98566.59;;;-0.09;95.53
44198;BME280;30157;55.512;37.764;2023-04-01T05:56:33;98756.94;;;1.25;95.82
44198;BME280;30157;55.512;37.764;2023-04-01T05:58:59;98747.41;;;1.15;95.57
44198;BME280;30157;55.512;37.764;2023-04-01T06:01:30;98657.28;;;0.72;95.67
44198;BME280;30157;55.512;37.764;2023-04-01T06:03:56;98671.88;;;0.79;95.43
44198;BME280;30157;55.512;37.764;2023-04-01T06:06:27;98770.44;;;1.18;94.99
44198;BME280;30157;55.512;37.764;2023-04-01T06:09:07;98765.19;;;1.09;95.43
44198;BME280;30157;55.512;37.764;2023-04-01T06:17:28;98779.72;;;1.13;95.92
44198;BME280;30157;55.512;37.764;2023-04-01T06:21:02;98759.34;;;1.16;95.76
44198;BME280;30157;55.512;37.764;2023-04-01T06:34:40;98746.53;;;1.14;96.23
44198;BME280;30157;55.512;37.764;2023-04-01T06:52:26;98801.53;;;1.43;96.02
44198;BME280;30157;55.512;37.764;2023-04-01T06:55:32;98727.63;;;1.05;96.08
44198;BME280;30157;55.512;37.764;2023-04-01T06:58:34;98807.84;;;1.68;95.87
44198;BME280;30157;55.512;37.764;2023-04-01T07:01:06;98785.06;;;1.82;95.57
44198;BME280;30157;55.512;37.764;2023-04-01T07:03:43;98810.13;;;2.08;94.82
44198;BME280;30157;55.512;37.764;2023-04-01T07:08:58;98768.47;;;2.20;94.13
44198;BME280;30157;55.512;37.764;2023-04-01T07:11:36;98801.34;;;2.58;93.31
44198;BME280;30157;55.512;37.764;2023-04-01T07:14:30;98738.81;;;2.40;92.61
44198;BME280;30157;55.512;37.764;2023-04-01T07:17:17;98806.69;;;2.78;90.89
44198;BME280;30157;55.512;37.764;2023-04-01T07:22:42;98799.03;;;2.82;91.10
44198;BME280;30157;55.512;37.764;2023-04-01T07:25:47;98815.59;;;3.14;90.35
44198;BME280;30157;55.512;37.764;2023-04-01T07:28:32;98816.53;;;3.27;90.21
44198;BME280;30157;55.512;37.764;2023-04-01T07:31:22;98827.00;;;3.51;89.38
44198;BME280;30157;55.512;37.764;2023-04-01T07:36:45;98804.97;;;3.86;87.70
44198;BME280;30157;55.512;37.764;2023-04-01T07:44:59;98808.81;;;4.88;85.00
44198;BME280;30157;55.512;37.764;2023-04-01T07:47:45;98821.72;;;5.15;85.99
44198;BME280;30157;55.512;37.764;2023-04-01T07:50:32;98815.72;;;5.07;85.18
44198;BME280;30157;55.512;37.764;2023-04-01T07:58:30;98831.47;;;7.22;78.15
44198;BME280;30157;55.512;37.764;2023-04-01T08:04:30;98804.50;;;7.59;77.43
44198;BME280;30157;55.512;37.764;2023-04-01T08:15:02;98773.38;;;7.74;71.32
44198;BME280;30157;55.512;37.764;2023-04-01T08:17:52;98831.44;;;8.23;66.64
44198;BME280;30157;55.512;37.764;2023-04-01T08:20:38;98836.94;;;7.90;68.75
44198;BME280;30157;55.512;37.764;2023-04-01T08:23:30;98761.94;;;8.70;69.56
44198;BME280;30157;55.512;37.764;2023-04-01T08:26:05;98842.13;;;11.54;60.60
44198;BME280;30157;55.512;37.764;2023-04-01T08:28:52;98842.50;;;12.72;57.04
44198;BME280;30157;55.512;37.764;2023-04-01T08:31:40;98749.72;;;12.10;52.75
44198;BME280;30157;55.512;37.764;2023-04-01T08:34:15;98789.28;;;10.39;59.73
44198;BME280;30157;55.512;37.764;2023-04-01T08:36:50;98830.75;;;9.43;63.78
44198;BME280;30157;55.512;37.764;2023-04-01T09:01:58;98859.81;;;11.38;55.62
44198;BME280;30157;55.512;37.764;2023-04-01T09:05:26;98848.97;;;13.99;50.97
44198;BME280;30157;55.512;37.764;2023-04-01T09:08:28;98849.47;;;13.30;47.62
44198;BME280;30157;55.512;37.764;2023-04-01T09:16:58;98771.66;;;13.18;47.68
44198;BME280;30157;55.512;37.764;2023-04-01T09:27:31;98838.06;;;8.49;59.75
44198;BME280;30157;55.512;37.764;2023-04-01T09:30:27;98868.97;;;10.31;55.60
44198;BME280;30157;55.512;37.764;2023-04-01T09:36:18;98790.88;;;11.96;50.20
44198;BME280;30157;55.512;37.764;2023-04-01T09:38:57;98795.69;;;11.04;48.41
44198;BME280;30157;55.512;37.764;2023-04-01T09:41:31;98885.38;;;11.57;47.08
44198;BME280;30157;55.512;37.764;2023-04-01T09:44:34;98877.97;;;11.40;47.43
44198;BME280;30157;55.512;37.764;2023-04-01T09:47:41;98884.59;;;10.26;51.09
44198;BME280;30157;55.512;37.764;2023-04-01T09:53:11;98839.88;;;9.65;53.15
44198;BME280;30157;55.512;37.764;2023-04-01T10:21:09;98888.66;;;12.34;46.23
44198;BME280;30157;55.512;37.764;2023-04-01T10:24:00;98888.94;;;12.23;45.56
44198;BME280;30157;55.512;37.764;2023-04-01T10:51:22;98906.84;;;12.67;44.15
44198;BME280;30157;55.512;37.764;2023-04-01T11:33:41;98925.22;;;11.56;45.44
44198;BME280;30157;55.512;37.764;2023-04-01T11:45:41;98883.00;;;9.12;51.16
44198;BME280;30157;55.512;37.764;2023-04-01T11:48:07;98768.78;;;8.02;52.19
44198;BME280;30157;55.512;37.764;2023-04-01T11:54:01;98928.09;;;9.54;50.48
44198;BME280;30157;55.512;37.764;2023-04-01T11:59:49;98951.78;;;9.30;50.03
44198;BME280;30157;55.512;37.764;2023-04-01T12:03:00;98940.28;;;9.49;50.36
44198;BME280;30157;55.512;37.764;2023-04-01T12:11:45;98951.84;;;8.49;52.66
44198;BME280;30157;55.512;37.764;2023-04-01T12:14:22;98977.84;;;8.32;52.40
44198;BME280;30157;55.512;37.764;2023-04-01T12:19:59;98955.69;;;8.03;54.04
44198;BME280;30157;55.512;37.764;2023-04-01T12:22:56;98924.69;;;7.98;54.01
44198;BME280;30157;55.512;37.764;2023-04-01T12:32:06;98951.28;;;8.17;55.37
44198;BME280;30157;55.512;37.764;2023-04-01T12:35:18;98955.59;;;8.14;55.35
44198;BME280;30157;55.512;37.764;2023-04-01T12:37:48;98967.88;;;7.87;55.82
44198;BME280;30157;55.512;37.764;2023-04-01T12:40:28;98970.41;;;7.93;54.64
44198;BME280;30157;55.512;37.764;2023-04-01T12:43:40;98976.44;;;7.92;54.93
44198;BME280;30157;55.512;37.764;2023-04-01T12:46:25;98977.34;;;7.88;53.99
44198;BME280;30157;55.512;37.764;2023-04-01T12:49:08;98975.59;;;7.92;53.19
44198;BME280;30157;55.512;37.764;2023-04-01T13:02:51;98994.97;;;7.18;56.65
44198;BME280;30157;55.512;37.764;2023-04-01T13:11:09;98952.91;;;6.94;58.55
44198;BME280;30157;55.512;37.764;2023-04-01T13:29:40;99011.31;;;7.14;61.42
44198;BME280;30157;55.512;37.764;2023-04-01T13:38:01;99015.69;;;6.90;63.09
44198;BME280;30157;55.512;37.764;2023-04-01T13:40:39;99009.63;;;6.97;62.86
44198;BME280;30157;55.512;37.764;2023-04-01T13:43:55;99009.66;;;6.86;63.77
44198;BME280;30157;55.512;37.764;2023-04-01T13:57:22;99020.78;;;7.09;64.30
44198;BME280;30157;55.512;37.764;2023-04-01T14:00:17;99029.44;;;6.95;65.05
44198;BME280;30157;55.512;37.764;2023-04-01T14:05:56;98965.06;;;6.50;65.20
44198;BME280;30157;55.512;37.764;2023-04-01T14:14:31;99030.34;;;6.55;67.61
44198;BME280;30157;55.512;37.764;2023-04-01T14:42:09;99057.84;;;6.66;69.15
44198;BME280;30157;55.512;37.764;2023-04-01T14:50:05;99039.84;;;6.33;70.12
44198;BME280;30157;55.512;37.764;2023-04-01T14:52:35;99072.47;;;6.58;69.88
44198;BME280;30157;55.512;37.764;2023-04-01T14:55:18;99078.50;;;6.47;70.84
44198;BME280;30157;55.512;37.764;2023-04-01T14:57:58;99073.34;;;6.36;71.33
44198;BME280;30157;55.512;37.764;2023-04-01T15:00:25;99082.78;;;6.34;72.05
44198;BME280;30157;55.512;37.764;2023-04-01T15:08:20;99081.91;;;6.12;74.78
44198;BME280;30157;55.512;37.764;2023-04-01T15:11:21;99088.81;;;6.19;74.87
44198;BME280;30157;55.512;37.764;2023-04-01T15:19:12;99093.06;;;6.19;75.83
44198;BME280;30157;55.512;37.764;2023-04-01T15:24:46;99100.81;;;6.14;75.78
44198;BME280;30157;55.512;37.764;2023-04-01T15:32:59;99104.22;;;6.01;76.87
44198;BME280;30157;55.512;37.764;2023-04-01T15:38:45;99114.53;;;6.01;77.03
44198;BME280;30157;55.512;37.764;2023-04-01T15:41:35;99115.41;;;6.04;76.71
44198;BME280;30157;55.512;37.764;2023-04-01T15:44:37;99113.63;;;5.94;77.53
44198;BME280;30157;55.512;37.764;2023-04-01T15:52:34;99105.78;;;5.68;78.01
44198;BME280;30157;55.512;37.764;2023-04-01T16:00:21;99138.47;;;5.81;78.36
44198;BME280;30157;55.512;37.764;2023-04-01T16:08:37;99148.78;;;5.91;78.04
44198;BME280;30157;55.512;37.764;2023-04-01T16:11:28;99120.38;;;5.67;78.81
44198;BME280;30157;55.512;37.764;2023-04-01T16:14:31;99158.22;;;5.84;79.04
44198;BME280;30157;55.512;37.764;2023-04-01T16:20:19;99161.59;;;5.72;79.55
44198;BME280;30157;55.512;37.764;2023-04-01T16:22:55;99169.34;;;5.75;79.43
44198;BME280;30157;55.512;37.764;2023-04-01T16:25:35;99171.88;;;5.64;80.30
44198;BME280;30157;55.512;37.764;2023-04-01T16:28:17;99072.94;;;5.08;80.48
44198;BME280;30157;55.512;37.764;2023-04-01T16:36:30;99188.13;;;5.54;82.08
44198;BME280;30157;55.512;37.764;2023-04-01T16:39:08;99181.25;;;5.54;82.29
44198;BME280;30157;55.512;37.764;2023-04-01T16:41:42;99083.13;;;4.91;81.80
44198;BME280;30157;55.512;37.764;2023-04-01T16:44:22;99201.84;;;5.53;83.41
44198;BME280;30157;55.512;37.764;2023-04-01T16:47:09;99166.50;;;5.29;84.21
44198;BME280;30157;55.512;37.764;2023-04-01T16:49:51;99154.41;;;5.08;85.50
44198;BME280;30157;55.512;37.764;2023-04-01T16:52:46;99202.47;;;5.18;86.71
44198;BME280;30157;55.512;37.764;2023-04-01T16:55:19;99172.34;;;5.03;86.93
44198;BME280;30157;55.512;37.764;2023-04-01T16:57:50;99122.34;;;4.64;87.03
44198;BME280;30157;55.512;37.764;2023-04-01T17:00:39;99204.22;;;5.24;86.80
44198;BME280;30157;55.512;37.764;2023-04-01T17:05:42;99216.31;;;5.32;86.69
44198;BME280;30157;55.512;37.764;2023-04-01T17:11:36;99217.91;;;5.18;87.53
44198;BME280;30157;55.512;37.764;2023-04-01T17:19:42;99180.91;;;5.02;88.22
44198;BME280;30157;55.512;37.764;2023-04-01T17:22:31;99168.88;;;4.99;87.83
44198;BME280;30157;55.512;37.764;2023-04-01T17:27:51;99218.66;;;5.04;88.84
44198;BME280;30157;55.512;37.764;2023-04-01T17:35:57;99216.91;;;5.02;88.99
44198;BME280;30157;55.512;37.764;2023-04-01T17:49:14;99162.56;;;4.57;89.89
44198;BME280;30157;55.512;37.764;2023-04-01T18:11:49;99251.16;;;4.96;90.38
44198;BME280;30157;55.512;37.764;2023-04-01T18:17:18;99261.53;;;5.01;89.89
44198;BME280;30157;55.512;37.764;2023-04-01T18:22:43;99231.25;;;4.74;90.18
44198;BME280;30157;55.512;37.764;2023-04-01T18:25:40;99253.66;;;4.87;90.93
44198;BME280;30157;55.512;37.764;2023-04-01T18:28:35;99255.31;;;4.82;91.29
44198;BME280;30157;55.512;37.764;2023-04-01T18:31:16;99264.06;;;4.99;90.28
44198;BME280;30157;55.512;37.764;2023-04-01T18:39:10;99272.63;;;4.98;90.36
44198;BME280;30157;55.512;37.764;2023-04-01T18:41:56;99257.94;;;4.85;90.51
44198;BME280;30157;55.512;37.764;2023-04-01T18:47:14;99247.47;;;4.68;91.25
44198;BME280;30157;55.512;37.764;2023-04-01T18:50:07;99281.94;;;4.88;91.17
44198;BME280;30157;55.512;37.764;2023-04-01T18:52:41;99275.97;;;4.88;91.26
44198;BME280;30157;55.512;37.764;2023-04-01T18:57:49;99276.88;;;4.95;90.56
44198;BME280;30157;55.512;37.764;2023-04-01T19:00:26;99287.16;;;4.95;90.85
44198;BME280;30157;55.512;37.764;2023-04-01T19:05:49;99241.38;;;4.55;91.05
44198;BME280;30157;55.512;37.764;2023-04-01T19:08:28;99288.81;;;4.88;91.05
44198;BME280;30157;55.512;37.764;2023-04-01T19:11:10;99288.84;;;4.93;91.06
44198;BME280;30157;55.512;37.764;2023-04-01T19:16:16;99244.09;;;4.70;91.11
44198;BME280;30157;55.512;37.764;2023-04-01T19:18:57;99292.28;;;4.92;91.49
44198;BME280;30157;55.512;37.764;2023-04-01T19:21:44;99288.06;;;4.98;90.91
44198;BME280;30157;55.512;37.764;2023-04-01T19:32:58;99288.91;;;4.99;91.17
44198;BME280;30157;55.512;37.764;2023-04-01T19:38:22;99298.31;;;4.95;91.41
44198;BME280;30157;55.512;37.764;2023-04-01T19:40:55;99293.06;;;4.86;91.78
44198;BME280;30157;55.512;37.764;2023-04-01T19:46:14;99211.28;;;4.48;91.20
44198;BME280;30157;55.512;37.764;2023-04-01T19:54:28;99311.41;;;5.20;90.52
44198;BME280;30157;55.512;37.764;2023-04-01T20:04:41;99317.22;;;5.02;91.50
44198;BME280;30157;55.512;37.764;2023-04-01T20:10:04;99324.19;;;5.09;91.46
44198;BME280;30157;55.512;37.764;2023-04-01T20:17:47;99329.22;;;4.97;92.23
44198;BME280;30157;55.512;37.764;2023-04-01T20:27:47;99237.81;;;4.45;92.64
44198;BME280;30157;55.512;37.764;2023-04-01T20:46:56;99320.88;;;5.21;91.83
44198;BME280;30157;55.512;37.764;2023-04-01T20:49:41;99332.84;;;5.22;92.14
44198;BME280;30157;55.512;37.764;2023-04-01T21:03:19;99326.00;;;5.21;91.87
44198;BME280;30157;55.512;37.764;2023-04-01T21:11:46;99332.75;;;5.11;92.27
44198;BME280;30157;55.512;37.764;2023-04-01T21:19:59;99336.97;;;5.03;92.92
44198;BME280;30157;55.512;37.764;2023-04-01T21:25:30;99337.97;;;5.19;92.45
44198;BME280;30157;55.512;37.764;2023-04-01T21:28:23;99246.53;;;4.58;92.58
44198;BME280;30157;55.512;37.764;2023-04-01T21:31:12;99354.13;;;5.04;93.26
44198;BME280;30157;55.512;37.764;2023-04-01T22:07:20;99327.47;;;4.96;95.45
44198;BME280;30157;55.512;37.764;2023-04-01T22:19:10;99346.56;;;5.19;95.06
44198;BME280;30157;55.512;37.764;2023-04-01T22:30:13;99289.53;;;4.75;94.68
44198;BME280;30157;55.512;37.764;2023-04-01T22:33:09;99379.22;;;5.25;95.11
44198;BME280;30157;55.512;37.764;2023-04-01T22:41:25;99378.31;;;5.23;95.01
44198;BME280;30157;55.512;37.764;2023-04-01T22:43:55;99369.78;;;5.24;95.00
44198;BME280;30157;55.512;37.764;2023-04-01T22:46:52;99379.22;;;5.27;95.31
44198;BME280;30157;55.512;37.764;2023-04-01T22:49:31;99368.03;;;5.23;95.57
44198;BME280;30157;55.512;37.764;2023-04-01T22:52:08;99280.06;;;4.69;95.25
44198;BME280;30157;55.512;37.764;2023-04-01T22:54:45;99354.19;;;5.10;95.53
44198;BME280;30157;55.512;37.764;2023-04-01T22:57:14;99382.72;;;5.33;95.44
44198;BME280;30157;55.512;37.764;2023-04-01T23:02:27;99381.00;;;5.35;95.30
44198;BME280;30157;55.512;37.764;2023-04-01T23:04:57;99268.84;;;4.61;95.81
44198;BME280;30157;55.512;37.764;2023-04-01T23:07:48;99381.81;;;5.30;95.87
44198;BME280;30157;55.512;37.764;2023-04-01T23:11:14;99385.22;;;5.27;95.88
44198;BME280;30157;55.512;37.764;2023-04-01T23:13:34;99380.97;;;5.31;95.89
44198;BME280;30157;55.512;37.764;2023-04-01T23:16:04;99386.16;;;5.35;95.57
44198;BME280;30157;55.512;37.764;2023-04-01T23:18:57;99352.50;;;5.14;95.97
44198;BME280;30157;55.512;37.764;2023-04-01T23:21:43;99360.25;;;5.17;96.32
44198;BME280;30157;55.512;37.764;2023-04-01T23:24:34;99303.34;;;4.83;96.23
44198;BME280;30157;55.512;37.764;2023-04-01T23:27:11;99361.16;;;5.20;96.18
44198;BME280;30157;55.512;37.764;2023-04-01T23:29:38;99346.44;;;5.07;96.17
44198;BME280;30157;55.512;37.764;2023-04-01T23:32:18;99280.06;;;4.69;96.49
44198;BME280;30157;55.512;37.764;2023-04-01T23:34:50;99385.28;;;5.32;96.38
44198;BME280;30157;55.512;37.764;2023-04-01T23:37:17;99380.16;;;5.35;96.22